createdAt,value
2022-10-13T00:01:38.942Z,22.37
2022-10-13T00:04:08.194Z,18.93
2022-10-13T00:06:38.910Z,19.13
2022-10-13T00:09:08.301Z,19.00
2022-10-13T00:11:37.788Z,24.97
2022-10-13T00:14:07.786Z,21.50
2022-10-13T00:16:37.272Z,20.23
2022-10-13T00:19:06.720Z,19.93
2022-10-13T00:21:37.077Z,20.27
2022-10-13T00:24:06.764Z,20.17
2022-10-13T00:26:36.050Z,21.07
2022-10-13T00:29:05.780Z,22.03
2022-10-13T00:31:35.183Z,19.17
2022-10-13T00:34:04.567Z,21.60
2022-10-13T00:36:34.096Z,19.20
2022-10-13T00:39:05.179Z,18.77
2022-10-13T00:41:34.715Z,21.40
2022-10-13T00:44:06.239Z,19.80
2022-10-13T00:46:37.607Z,20.67
2022-10-13T00:49:08.997Z,20.47
2022-10-13T00:51:42.055Z,18.63
2022-10-13T00:54:15.709Z,21.47
2022-10-13T00:56:46.239Z,19.77
2022-10-13T00:59:23.006Z,21.03
2022-10-13T01:01:52.737Z,21.57
2022-10-13T01:04:24.108Z,20.20
2022-10-13T01:06:54.246Z,19.87
2022-10-13T01:09:25.582Z,19.67
2022-10-13T01:12:03.441Z,20.13
2022-10-13T01:14:37.640Z,19.93
2022-10-13T01:17:14.870Z,18.33
2022-10-13T01:20:17.084Z,19.20
2022-10-13T01:22:58.421Z,22.10
2022-10-13T01:25:36.108Z,20.60
2022-10-13T01:28:30.278Z,23.80
2022-10-13T01:31:04.799Z,20.40
2022-10-13T01:33:39.530Z,21.83
2022-10-13T01:36:17.143Z,19.07
2022-10-13T01:38:49.559Z,22.13
2022-10-13T01:41:22.554Z,19.37
2022-10-13T01:43:55.830Z,20.87
2022-10-13T01:46:29.687Z,20.83
2022-10-13T01:49:01.601Z,23.40
2022-10-13T01:51:31.705Z,21.77
2022-10-13T01:54:01.710Z,21.30
2022-10-13T01:56:30.953Z,20.63
2022-10-13T01:59:02.420Z,22.60
2022-10-13T02:01:45.220Z,20.80
2022-10-13T02:04:25.101Z,22.23
2022-10-13T02:06:56.751Z,21.80
2022-10-13T02:09:32.458Z,24.00
2022-10-13T02:12:07.202Z,25.53
2022-10-13T02:14:39.174Z,25.53
2022-10-13T02:17:10.228Z,25.40
2022-10-13T02:19:40.745Z,25.50
2022-10-13T02:22:10.393Z,24.23
2022-10-13T02:24:39.655Z,25.27
2022-10-13T02:27:09.856Z,24.07
2022-10-13T02:29:51.177Z,23.30
2022-10-13T02:32:22.476Z,21.53
2022-10-13T02:34:52.897Z,20.77
2022-10-13T02:37:25.407Z,22.67
2022-10-13T02:39:54.787Z,19.87
2022-10-13T02:42:24.350Z,21.70
2022-10-13T02:44:54.505Z,22.27
2022-10-13T02:47:25.426Z,20.87
2022-10-13T02:49:54.641Z,21.37
2022-10-13T02:52:24.320Z,22.00
2022-10-13T02:54:53.950Z,21.80
2022-10-13T02:57:23.205Z,21.40
2022-10-13T02:59:52.492Z,20.67
2022-10-13T03:02:24.991Z,20.83
2022-10-13T03:04:54.234Z,19.83
2022-10-13T03:07:24.292Z,24.80
2022-10-13T03:09:53.822Z,22.53
2022-10-13T03:12:23.596Z,21.07
2022-10-13T03:14:53.625Z,23.60
2022-10-13T03:17:24.393Z,21.93
2022-10-13T03:19:54.155Z,21.13
2022-10-13T03:22:23.601Z,22.23
2022-10-13T03:24:53.060Z,22.40
2022-10-13T03:27:22.548Z,22.97
2022-10-13T03:29:52.438Z,21.60
2022-10-13T03:32:22.141Z,27.43
2022-10-13T03:34:53.360Z,21.47
2022-10-13T03:37:24.451Z,21.97
2022-10-13T03:39:54.222Z,23.40
2022-10-13T03:42:23.986Z,26.37
2022-10-13T03:44:56.496Z,23.53
2022-10-13T03:47:29.050Z,22.47
2022-10-13T03:50:00.478Z,21.57
2022-10-13T03:52:29.854Z,21.17
2022-10-13T03:54:59.206Z,21.03
2022-10-13T03:57:29.041Z,20.90
2022-10-13T04:00:00.801Z,20.40
2022-10-13T04:02:33.286Z,21.37
2022-10-13T04:05:08.940Z,21.47
2022-10-13T04:07:38.432Z,21.13
2022-10-13T04:10:12.551Z,23.27
2022-10-13T05:12:48.219Z,25.43
2022-10-13T05:15:21.125Z,25.00
2022-10-13T05:17:50.653Z,23.07
2022-10-13T05:20:21.883Z,24.20
2022-10-13T05:22:51.491Z,24.80
2022-10-13T05:25:23.170Z,25.70
2022-10-13T05:27:55.087Z,24.63
2022-10-13T05:30:25.166Z,21.77
2022-10-13T05:32:58.492Z,28.90
2022-10-13T05:35:29.506Z,21.40
2022-10-13T05:38:01.080Z,23.20
2022-10-13T05:40:30.422Z,23.80
2022-10-13T05:43:02.527Z,28.23
2022-10-13T05:45:37.583Z,24.37
2022-10-13T05:48:07.623Z,24.90
2022-10-13T05:50:38.165Z,23.47
2022-10-13T05:53:08.243Z,25.70
2022-10-13T05:55:37.997Z,23.50
2022-10-13T05:58:09.547Z,23.87
2022-10-13T06:00:39.739Z,24.20
2022-10-13T06:03:13.172Z,23.50
2022-10-13T06:05:45.438Z,25.47
2022-10-13T06:08:17.782Z,24.70
2022-10-13T07:11:12.957Z,22.70
2022-10-13T07:13:47.093Z,21.43
2022-10-13T07:16:17.383Z,25.67
2022-10-13T07:18:49.169Z,26.63
2022-10-13T07:21:18.575Z,26.00
2022-10-13T07:23:48.008Z,25.87
2022-10-13T07:26:19.095Z,23.27
2022-10-13T07:28:49.124Z,35.63
2022-10-13T07:31:21.697Z,26.93
2022-10-13T07:33:52.199Z,30.27
2022-10-13T07:36:22.108Z,26.60
2022-10-13T07:38:53.932Z,27.07
2022-10-13T07:41:25.228Z,27.43
2022-10-13T07:43:57.001Z,26.60
2022-10-13T07:46:26.809Z,25.73
2022-10-13T07:48:56.920Z,25.97
2022-10-13T07:51:26.459Z,23.80
2022-10-13T07:53:56.658Z,25.13
2022-10-13T07:56:28.155Z,24.27
2022-10-13T07:58:57.736Z,24.77
2022-10-13T08:01:27.806Z,27.00
2022-10-13T08:03:57.389Z,27.40
2022-10-13T08:06:27.092Z,27.50
2022-10-13T08:08:57.850Z,26.43
2022-10-13T08:11:29.051Z,25.80
2022-10-13T08:14:01.687Z,25.13
2022-10-13T08:16:32.443Z,25.93
2022-10-13T08:19:02.116Z,28.87
2022-10-13T08:24:22.778Z,25.97
2022-10-13T08:26:53.865Z,23.30
2022-10-13T08:29:24.447Z,25.87
2022-10-13T08:31:55.309Z,26.03
2022-10-13T08:34:25.626Z,29.93
2022-10-13T08:36:57.411Z,25.03
2022-10-13T08:39:27.456Z,27.83
2022-10-13T08:41:59.057Z,31.63
2022-10-13T08:45:15.789Z,27.20
2022-10-13T08:47:34.180Z,29.83
2022-10-13T08:50:05.485Z,28.63
2022-10-13T08:52:50.328Z,27.50
2022-10-13T08:55:26.669Z,29.30
2022-10-13T08:57:57.945Z,29.20
2022-10-13T09:00:27.168Z,29.10
2022-10-13T09:03:01.220Z,28.97
2022-10-13T09:05:36.008Z,31.47
2022-10-13T09:08:07.736Z,32.87
2022-10-13T09:10:49.344Z,32.73
2022-10-13T09:13:21.169Z,32.73
2022-10-13T09:15:52.502Z,32.67
2022-10-13T09:18:31.031Z,33.57
2022-10-13T09:21:20.922Z,31.00
2022-10-13T09:23:52.411Z,33.50
2022-10-13T09:26:25.123Z,31.60
2022-10-13T09:28:58.209Z,28.80
2022-10-13T09:31:30.541Z,31.47
2022-10-13T09:34:01.411Z,34.17
2022-10-13T09:36:31.936Z,34.20
2022-10-13T09:39:10.121Z,32.87
2022-10-13T09:41:39.419Z,32.83
2022-10-13T09:44:15.443Z,37.17
2022-10-13T09:46:53.014Z,34.83
2022-10-13T09:49:35.806Z,31.40
2022-10-13T09:52:07.416Z,33.33
2022-10-13T09:54:48.305Z,31.03
2022-10-13T09:57:27.105Z,31.67
2022-10-13T10:00:04.021Z,33.20
2022-10-13T10:02:37.319Z,30.43
2022-10-13T10:05:15.742Z,29.40
2022-10-13T10:07:47.543Z,29.03
2022-10-13T10:23:41.007Z,25.43
2022-10-13T11:11:37.205Z,19.07
2022-10-13T11:14:29.891Z,22.17
2022-10-13T11:17:17.752Z,21.30
2022-10-13T11:19:49.011Z,21.30
2022-10-13T11:22:24.906Z,17.67
2022-10-13T11:25:00.920Z,18.37
2022-10-13T11:27:49.509Z,17.67
2022-10-13T11:30:43.233Z,19.00
2022-10-13T11:33:35.075Z,17.17
2022-10-13T11:36:39.457Z,16.23
2022-10-13T11:39:38.160Z,15.70
2022-10-13T11:42:20.506Z,15.90
2022-10-13T11:44:55.604Z,14.90
2022-10-13T11:47:47.078Z,16.77
2022-10-13T11:50:23.953Z,14.80
2022-10-13T11:53:12.664Z,15.60
2022-10-13T11:55:50.398Z,15.20
2022-10-13T11:58:23.423Z,13.77
2022-10-13T12:00:56.492Z,15.37
2022-10-13T12:03:28.961Z,14.30
2022-10-13T12:06:01.032Z,15.73
2022-10-13T12:08:32.162Z,14.40
2022-10-13T13:10:23.051Z,14.40
2022-10-13T13:12:54.822Z,17.17
2022-10-13T13:15:35.245Z,18.40
2022-10-13T13:18:24.456Z,16.20
2022-10-13T13:20:54.057Z,17.03
2022-10-13T13:23:24.319Z,17.20
2022-10-13T13:26:08.913Z,16.60
2022-10-13T13:28:49.295Z,18.40
2022-10-13T13:31:25.067Z,20.70
2022-10-13T13:33:54.725Z,20.13
2022-10-13T13:36:25.277Z,16.83
2022-10-13T13:38:55.773Z,20.20
2022-10-13T13:41:31.853Z,17.43
2022-10-13T13:44:01.613Z,18.73
2022-10-13T13:46:32.471Z,18.67
2022-10-13T13:49:02.843Z,18.27
2022-10-13T13:51:32.112Z,17.70
2022-10-13T13:54:02.549Z,19.57
2022-10-13T13:56:33.274Z,20.83
2022-10-13T13:59:02.520Z,19.83
2022-10-13T14:01:32.494Z,16.97
2022-10-13T14:04:03.130Z,18.10
2022-10-13T14:06:32.576Z,17.37
2022-10-13T14:09:02.957Z,19.20
2022-10-13T14:11:34.176Z,19.10
2022-10-13T14:14:03.510Z,20.20
2022-10-13T14:16:32.757Z,20.40
2022-10-13T14:19:02.343Z,20.77
2022-10-13T14:21:32.044Z,20.57
2022-10-13T14:24:01.405Z,20.37
2022-10-13T14:26:32.632Z,18.37
2022-10-13T14:29:01.907Z,23.27
2022-10-13T14:31:31.583Z,20.27
2022-10-13T14:34:01.170Z,19.87
2022-10-13T14:36:30.870Z,21.07
2022-10-13T14:39:00.064Z,20.77
2022-10-13T14:41:29.303Z,21.87
2022-10-13T14:44:00.169Z,20.80
2022-10-13T14:46:29.414Z,19.47
2022-10-13T14:48:59.081Z,20.30
2022-10-13T14:51:28.598Z,20.63
2022-10-13T14:53:57.806Z,21.07
2022-10-13T14:56:30.065Z,19.03
2022-10-13T14:59:02.725Z,20.47
2022-10-13T15:01:33.568Z,22.47
2022-10-13T15:04:03.475Z,21.27
2022-10-13T15:06:33.422Z,23.10
2022-10-13T15:09:03.138Z,22.80
2022-10-13T15:11:32.623Z,23.43
2022-10-13T15:14:03.366Z,21.77
2022-10-13T15:16:34.005Z,21.23
2022-10-13T15:19:03.998Z,21.07
2022-10-13T15:21:35.975Z,19.17
2022-10-13T15:24:05.702Z,20.33
2022-10-13T15:26:36.873Z,18.70
2022-10-13T15:29:07.381Z,19.47
2022-10-13T15:31:37.151Z,22.07
2022-10-13T15:34:06.547Z,20.07
2022-10-13T15:36:36.061Z,19.80
2022-10-13T15:39:05.659Z,23.30
2022-10-13T15:41:34.577Z,20.03
2022-10-13T15:44:03.808Z,20.60
2022-10-13T15:46:34.494Z,20.83
2022-10-13T15:49:03.704Z,21.17
2022-10-13T15:51:33.529Z,21.57
2022-10-13T15:54:03.141Z,20.73
2022-10-13T15:56:33.402Z,19.87
2022-10-13T15:59:02.905Z,22.27
2022-10-13T16:01:33.541Z,21.73
2022-10-13T16:04:02.975Z,21.90
2022-10-13T16:06:33.959Z,22.10
2022-10-13T16:09:03.616Z,20.13
2022-10-13T16:11:32.850Z,21.63
2022-10-13T16:14:02.593Z,19.70
2022-10-13T16:16:33.627Z,20.77
2022-10-13T16:19:03.400Z,20.50
2022-10-13T16:21:32.709Z,22.77
2022-10-13T16:24:01.940Z,21.23
2022-10-13T16:26:31.155Z,22.13
2022-10-13T16:29:00.658Z,20.80
2022-10-13T16:31:30.724Z,21.13
2022-10-13T16:34:01.393Z,20.40
2022-10-13T16:36:31.330Z,22.03
2022-10-13T16:39:01.661Z,23.00
2022-10-13T16:41:31.185Z,23.73
2022-10-13T16:44:00.388Z,22.30
2022-10-13T16:46:30.200Z,22.90
2022-10-13T16:49:00.707Z,22.93
2022-10-13T16:51:30.291Z,24.03
2022-10-13T16:54:04.229Z,20.13
2022-10-13T16:56:38.519Z,24.00
2022-10-13T16:59:44.974Z,22.33
2022-10-13T17:02:17.903Z,23.03
2022-10-13T17:04:57.469Z,24.60
2022-10-13T17:07:32.011Z,28.57
2022-10-13T17:10:08.923Z,25.30
2022-10-13T17:12:38.523Z,30.07
2022-10-13T17:15:12.955Z,27.83
2022-10-13T17:17:42.791Z,28.57
2022-10-13T17:20:14.413Z,29.50
2022-10-13T17:22:43.600Z,32.70
2022-10-13T17:25:13.763Z,32.87
2022-10-13T17:27:43.314Z,29.47
2022-10-13T17:30:15.357Z,35.90
2022-10-13T17:32:44.731Z,33.63
2022-10-13T17:35:18.041Z,31.93
2022-10-13T17:37:48.138Z,33.87
2022-10-13T17:40:17.484Z,31.60
2022-10-13T17:42:46.875Z,32.23
2022-10-13T17:45:17.808Z,54.90
2022-10-13T17:47:49.882Z,50.33
2022-10-13T17:50:21.273Z,35.83
2022-10-13T17:52:50.737Z,33.33
2022-10-13T17:55:20.465Z,29.97
2022-10-13T17:57:51.437Z,29.77
2022-10-13T18:00:21.268Z,28.90
2022-10-13T18:02:52.919Z,30.33
2022-10-13T18:05:25.145Z,30.90
2022-10-13T18:07:59.512Z,30.17
2022-10-13T18:11:03.454Z,27.03
2022-10-13T18:13:28.476Z,26.83
2022-10-13T18:16:02.458Z,25.60
2022-10-13T18:18:32.446Z,28.30
2022-10-13T18:21:05.366Z,26.40
2022-10-13T18:23:35.196Z,25.77
2022-10-13T18:26:09.129Z,23.80
2022-10-13T18:28:40.487Z,25.47
2022-10-13T18:31:12.323Z,24.63
2022-10-13T18:33:42.125Z,27.87
2022-10-13T18:36:19.823Z,27.50
2022-10-13T18:38:50.026Z,29.07
2022-10-13T18:41:19.896Z,32.10
2022-10-13T18:43:49.132Z,31.13
2022-10-13T18:46:21.668Z,35.17
2022-10-13T18:48:51.055Z,33.77
2022-10-13T18:51:22.225Z,31.70
2022-10-13T18:53:52.055Z,32.13
2022-10-13T18:56:22.993Z,32.83
2022-10-13T18:58:58.463Z,30.20
2022-10-13T19:01:33.000Z,31.73
2022-10-13T19:04:02.979Z,28.17
2022-10-13T19:06:35.590Z,29.33
2022-10-13T19:09:10.355Z,30.03
2022-10-13T19:11:40.326Z,28.70
2022-10-13T19:14:11.462Z,32.20
2022-10-13T19:16:42.894Z,31.13
2022-10-13T19:19:15.529Z,28.87
2022-10-13T19:21:47.464Z,29.30
2022-10-13T19:24:16.764Z,28.67
2022-10-13T19:26:46.153Z,29.53
2022-10-13T19:29:16.229Z,28.93
2022-10-13T19:31:45.962Z,29.73
2022-10-13T19:34:16.193Z,28.97
2022-10-13T19:36:48.100Z,31.10
2022-10-13T19:39:20.070Z,27.73
2022-10-13T19:41:50.111Z,30.93
2022-10-13T19:44:21.725Z,29.43
2022-10-13T19:46:51.138Z,32.57
2022-10-13T19:49:21.653Z,29.90
2022-10-13T19:51:54.027Z,28.27
2022-10-13T19:54:24.184Z,30.10
2022-10-13T19:56:54.056Z,31.30
2022-10-13T19:59:24.148Z,31.80
2022-10-13T20:01:53.533Z,28.67
2022-10-13T20:04:25.151Z,33.50
2022-10-13T20:06:55.860Z,31.47
2022-10-13T20:09:25.453Z,35.50
2022-10-13T20:11:54.592Z,32.53
2022-10-13T20:14:23.849Z,27.43
2022-10-13T20:16:53.524Z,31.50
2022-10-13T20:19:22.751Z,31.90
2022-10-13T20:21:53.003Z,32.30
2022-10-13T20:24:23.928Z,32.30
2022-10-13T20:26:53.170Z,31.33
2022-10-13T20:29:22.374Z,31.63
2022-10-13T20:31:51.643Z,29.33
2022-10-13T20:34:20.848Z,29.80
2022-10-13T20:36:52.144Z,28.00
2022-10-13T20:39:23.047Z,31.80
2022-10-13T20:41:52.314Z,29.70
2022-10-13T20:44:21.456Z,30.30
2022-10-13T20:46:52.675Z,31.67
2022-10-13T20:49:22.245Z,30.30
2022-10-13T20:51:51.753Z,28.93
2022-10-13T20:54:22.703Z,30.53
2022-10-13T20:56:52.969Z,30.77
2022-10-13T20:59:22.241Z,32.47
2022-10-13T21:01:51.573Z,33.83
2022-10-13T21:04:20.902Z,31.00
2022-10-13T21:06:50.815Z,32.23
2022-10-13T21:09:20.072Z,31.07
2022-10-13T21:11:50.576Z,32.23
2022-10-13T21:14:19.636Z,30.80
2022-10-13T21:16:48.757Z,31.23
2022-10-13T21:19:18.148Z,29.93
2022-10-13T21:21:47.374Z,31.73
2022-10-13T21:24:16.869Z,30.90
2022-10-13T21:26:46.144Z,32.83
2022-10-13T21:29:16.773Z,34.17
2022-10-13T21:31:46.312Z,31.70
2022-10-13T21:34:15.546Z,32.70
2022-10-13T21:36:45.606Z,31.47
2022-10-13T21:39:15.131Z,30.00
2022-10-13T21:41:44.354Z,30.93
2022-10-13T21:44:16.495Z,29.27
2022-10-13T21:46:45.665Z,31.43
2022-10-13T21:49:14.831Z,27.90
2022-10-13T21:51:44.126Z,31.97
2022-10-13T21:54:15.258Z,32.27
2022-10-13T21:56:44.720Z,34.77
2022-10-13T21:59:14.489Z,33.07
2022-10-13T22:01:45.487Z,31.90
2022-10-13T22:04:16.057Z,33.70
2022-10-13T22:06:46.634Z,34.63
2022-10-13T22:09:16.437Z,35.27
2022-10-13T22:11:45.812Z,32.67
2022-10-13T22:14:17.079Z,33.10
2022-10-13T22:16:49.927Z,34.77
2022-10-13T22:19:20.065Z,33.20
2022-10-13T22:21:50.528Z,32.50
2022-10-13T22:24:21.275Z,32.07
2022-10-13T22:26:51.381Z,32.30
2022-10-13T22:29:22.840Z,31.57
2022-10-13T22:31:57.368Z,32.13
2022-10-13T22:34:27.480Z,32.93
2022-10-13T22:36:57.132Z,31.67
2022-10-13T22:39:26.339Z,35.37
2022-10-13T22:41:55.861Z,31.53
2022-10-13T22:44:25.152Z,32.93
2022-10-13T22:46:55.805Z,30.90
2022-10-13T22:49:25.265Z,31.57
2022-10-13T22:51:54.627Z,29.37
2022-10-13T22:54:23.872Z,31.03
2022-10-13T22:56:53.939Z,29.93
2022-10-13T22:59:23.977Z,29.80
2022-10-13T23:01:55.229Z,31.33
2022-10-13T23:04:24.425Z,28.23
2022-10-13T23:06:53.646Z,30.27
2022-10-13T23:09:22.517Z,31.87
2022-10-13T23:11:53.344Z,32.80
2022-10-13T23:14:25.630Z,31.50
2022-10-13T23:16:56.301Z,33.60
2022-10-13T23:19:25.777Z,30.13
2022-10-13T23:21:55.050Z,29.83
2022-10-13T23:24:23.937Z,32.00
2022-10-13T23:27:00.309Z,30.83
2022-10-13T23:29:29.732Z,32.10
2022-10-13T23:32:00.447Z,31.53
2022-10-13T23:34:29.897Z,30.07
2022-10-13T23:36:59.252Z,32.40
2022-10-13T23:39:29.601Z,31.43
2022-10-13T23:41:59.002Z,32.33
2022-10-13T23:44:29.981Z,34.17
2022-10-13T23:47:00.733Z,35.70
2022-10-13T23:49:29.901Z,31.67
2022-10-13T23:51:59.148Z,34.07
2022-10-13T23:54:28.396Z,32.60
2022-10-13T23:56:58.093Z,32.13
2022-10-13T23:59:27.515Z,31.13
